createdAt,value
2018-08-28T00:00:06.536Z,14.20
2018-08-28T00:02:34.784Z,14.10
2018-08-28T00:05:03.087Z,14.00
2018-08-28T00:07:30.955Z,13.90
2018-08-28T00:09:58.763Z,13.90
2018-08-28T00:12:27.713Z,13.90
2018-08-28T00:14:55.465Z,13.80
2018-08-28T00:17:23.489Z,13.80
2018-08-28T00:19:51.237Z,13.80
2018-08-28T00:22:19.128Z,13.80
2018-08-28T00:24:47.023Z,13.80
2018-08-28T00:27:15.207Z,13.80
2018-08-28T00:29:42.823Z,13.80
2018-08-28T00:32:10.534Z,13.80
2018-08-28T00:34:38.128Z,13.90
2018-08-28T00:37:05.876Z,13.90
2018-08-28T00:39:34.144Z,13.90
2018-08-28T00:42:02.047Z,13.90
2018-08-28T00:44:29.684Z,13.90
2018-08-28T00:46:57.292Z,13.90
2018-08-28T00:49:25.014Z,13.90
2018-08-28T00:51:52.636Z,13.90
2018-08-28T00:54:20.276Z,14.00
2018-08-28T00:56:47.892Z,14.00
2018-08-28T00:59:15.648Z,14.00
2018-08-28T01:01:43.228Z,14.10
2018-08-28T01:04:11.302Z,14.20
2018-08-28T01:06:38.912Z,14.30
2018-08-28T01:09:07.014Z,14.30
2018-08-28T01:11:35.232Z,14.40
2018-08-28T01:14:02.900Z,14.40
2018-08-28T01:16:30.902Z,14.40
2018-08-28T01:18:58.852Z,14.50
2018-08-28T01:21:26.551Z,14.60
2018-08-28T01:23:54.054Z,14.60
2018-08-28T01:26:21.616Z,14.60
2018-08-28T01:28:49.170Z,14.60
2018-08-28T01:31:16.726Z,14.60
2018-08-28T01:33:44.678Z,14.60
2018-08-28T01:36:12.426Z,14.70
2018-08-28T01:38:40.194Z,14.70
2018-08-28T01:41:07.766Z,14.70
2018-08-28T01:43:35.684Z,14.70
2018-08-28T01:46:03.256Z,14.80
2018-08-28T01:48:30.781Z,14.70
2018-08-28T01:50:58.326Z,14.80
2018-08-28T01:53:25.986Z,14.80
2018-08-28T01:55:53.491Z,14.80
2018-08-28T01:58:21.014Z,14.80
2018-08-28T02:00:48.784Z,14.80
2018-08-28T02:03:16.883Z,14.80
2018-08-28T02:05:44.829Z,14.80
2018-08-28T02:08:13.209Z,14.80
2018-08-28T02:10:41.023Z,14.80
2018-08-28T02:13:08.990Z,14.80
2018-08-28T02:15:36.532Z,14.80
2018-08-28T02:18:04.090Z,14.80
2018-08-28T02:20:31.605Z,14.80
2018-08-28T02:22:59.217Z,14.80
2018-08-28T02:25:26.824Z,14.80
2018-08-28T02:27:54.360Z,14.80
2018-08-28T02:30:21.910Z,14.90
2018-08-28T02:32:49.439Z,14.90
2018-08-28T02:35:17.286Z,14.90
2018-08-28T02:37:45.101Z,14.90
2018-08-28T02:40:12.949Z,14.80
2018-08-28T02:42:40.586Z,14.80
2018-08-28T02:45:08.282Z,14.80
2018-08-28T02:47:35.837Z,14.70
2018-08-28T02:50:03.501Z,14.70
2018-08-28T02:52:31.273Z,14.60
2018-08-28T02:54:58.794Z,14.50
2018-08-28T02:57:26.533Z,14.40
2018-08-28T02:59:54.070Z,14.40
2018-08-28T03:02:21.767Z,14.30
2018-08-28T03:04:49.282Z,14.30
2018-08-28T03:07:16.771Z,14.30
2018-08-28T03:09:44.323Z,14.30
2018-08-28T03:12:11.897Z,14.20
2018-08-28T03:14:39.697Z,14.20
2018-08-28T03:17:07.409Z,14.10
2018-08-28T03:19:35.887Z,14.10
2018-08-28T03:22:03.708Z,14.00
2018-08-28T03:24:31.683Z,13.90
2018-08-28T03:26:59.274Z,13.90
2018-08-28T03:29:26.921Z,13.80
2018-08-28T03:31:54.445Z,13.70
2018-08-28T03:34:22.140Z,13.60
2018-08-28T03:36:54.097Z,13.60
2018-08-28T03:39:21.661Z,13.50
2018-08-28T03:41:49.214Z,13.50
2018-08-28T03:44:17.116Z,13.50
2018-08-28T03:46:44.607Z,13.40
2018-08-28T03:49:12.105Z,13.50
2018-08-28T03:51:39.802Z,13.40
2018-08-28T03:54:07.628Z,13.30
2018-08-28T03:56:35.731Z,13.20
2018-08-28T03:59:03.431Z,13.20
2018-08-28T04:01:31.267Z,13.10
2018-08-28T04:03:59.048Z,13.00
2018-08-28T04:06:26.593Z,12.90
2018-08-28T04:08:54.494Z,12.90
2018-08-28T04:11:22.238Z,12.80
2018-08-28T04:13:49.933Z,12.80
2018-08-28T04:16:17.488Z,12.80
2018-08-28T04:18:45.002Z,12.90
2018-08-28T04:21:12.585Z,13.00
2018-08-28T04:23:40.345Z,13.00
2018-08-28T04:26:08.282Z,13.00
2018-08-28T04:28:35.945Z,13.10
2018-08-28T04:31:03.502Z,13.10
2018-08-28T04:33:35.563Z,13.20
2018-08-28T04:36:03.083Z,13.20
2018-08-28T04:38:30.698Z,13.30
2018-08-28T04:40:58.467Z,13.40
2018-08-28T04:43:25.982Z,13.40
2018-08-28T04:45:53.944Z,13.40
2018-08-28T04:48:21.972Z,13.50
2018-08-28T04:50:49.576Z,13.50
2018-08-28T04:53:17.145Z,13.60
2018-08-28T04:55:44.694Z,13.70
2018-08-28T04:58:12.998Z,13.70
2018-08-28T05:00:40.650Z,13.80
2018-08-28T05:03:08.324Z,13.80
2018-08-28T05:05:35.886Z,13.90
2018-08-28T05:08:03.432Z,14.00
2018-08-28T05:10:31.120Z,14.10
2018-08-28T05:12:58.665Z,14.10
2018-08-28T05:15:26.173Z,14.20
2018-08-28T05:17:53.651Z,14.20
2018-08-28T05:20:21.155Z,14.30
2018-08-28T05:22:48.647Z,14.30
2018-08-28T05:25:16.153Z,14.40
2018-08-28T05:27:43.721Z,14.50
2018-08-28T05:30:11.219Z,14.50
2018-08-28T05:32:38.700Z,14.60
2018-08-28T05:35:06.375Z,14.60
2018-08-28T05:37:34.496Z,14.70
2018-08-28T05:40:02.069Z,14.70
2018-08-28T05:42:29.662Z,14.70
2018-08-28T05:44:57.141Z,14.70
2018-08-28T05:47:24.837Z,14.70
2018-08-28T05:49:52.453Z,14.80
2018-08-28T05:52:20.132Z,14.80
2018-08-28T05:54:47.674Z,14.90
2018-08-28T05:57:15.181Z,15.00
2018-08-28T05:59:42.689Z,15.00
2018-08-28T06:02:10.261Z,15.10
2018-08-28T06:04:37.735Z,15.20
2018-08-28T06:07:05.254Z,15.30
2018-08-28T06:09:32.839Z,15.30
2018-08-28T06:12:00.391Z,15.30
2018-08-28T06:14:27.930Z,15.40
2018-08-28T06:16:56.452Z,15.50
2018-08-28T06:19:23.977Z,15.60
2018-08-28T06:21:51.506Z,15.60
2018-08-28T06:24:20.050Z,15.70
2018-08-28T06:26:47.961Z,15.80
2018-08-28T06:29:15.482Z,15.90
2018-08-28T06:31:43.011Z,16.00
2018-08-28T06:34:10.575Z,16.10
2018-08-28T06:36:38.076Z,16.30
2018-08-28T06:39:07.075Z,16.40
2018-08-28T06:41:35.222Z,16.50
2018-08-28T06:44:03.516Z,16.60
2018-08-28T06:46:30.994Z,16.70
2018-08-28T06:48:58.526Z,16.90
2018-08-28T06:51:26.058Z,17.10
2018-08-28T06:53:53.618Z,17.30
2018-08-28T06:56:21.109Z,17.60
2018-08-28T06:58:48.712Z,17.90
2018-08-28T07:01:16.175Z,18.10
2018-08-28T07:03:43.958Z,18.30
2018-08-28T07:06:11.743Z,18.50
2018-08-28T07:08:39.302Z,18.80
2018-08-28T07:11:06.840Z,19.10
2018-08-28T07:13:35.054Z,19.30
2018-08-28T07:16:02.534Z,19.50
2018-08-28T07:18:30.100Z,19.70
2018-08-28T07:20:57.601Z,19.90
2018-08-28T07:23:25.150Z,20.10
2018-08-28T07:25:52.663Z,20.10
2018-08-28T07:28:20.310Z,20.10
2018-08-28T07:30:48.097Z,20.20
2018-08-28T07:33:16.194Z,20.30
2018-08-28T07:35:43.697Z,20.40
2018-08-28T07:38:11.198Z,20.70
2018-08-28T07:40:38.741Z,20.90
2018-08-28T07:43:06.259Z,21.20
2018-08-28T07:45:34.384Z,21.50
2018-08-28T07:48:01.917Z,21.70
2018-08-28T07:50:30.050Z,22.10
2018-08-28T07:52:57.550Z,22.60
2018-08-28T07:55:25.201Z,23.10
2018-08-28T07:57:52.678Z,23.60
2018-08-28T08:00:20.378Z,24.10
2018-08-28T08:02:48.002Z,24.40
2018-08-28T08:05:15.686Z,24.70
2018-08-28T08:07:43.159Z,25.00
2018-08-28T08:10:10.642Z,24.70
2018-08-28T08:12:38.306Z,24.70
2018-08-28T08:15:05.899Z,24.90
2018-08-28T08:17:33.925Z,25.20
2018-08-28T08:20:01.486Z,25.50
2018-08-28T08:22:29.305Z,25.90
2018-08-28T08:24:57.325Z,26.30
2018-08-28T08:27:25.051Z,26.30
2018-08-28T08:29:52.619Z,26.10
2018-08-28T08:32:22.936Z,25.60
2018-08-28T08:34:50.570Z,25.50
2018-08-28T08:37:18.184Z,25.80
2018-08-28T08:39:45.690Z,26.20
2018-08-28T08:42:13.295Z,26.70
2018-08-28T08:44:40.758Z,27.40
2018-08-28T08:47:08.323Z,27.80
2018-08-28T08:49:35.833Z,28.30
2018-08-28T08:52:03.498Z,28.50
2018-08-28T08:54:31.133Z,28.50
2018-08-28T08:56:58.651Z,28.70
2018-08-28T08:59:26.177Z,28.80
2018-08-28T09:01:53.750Z,29.00
2018-08-28T09:04:21.254Z,29.30
2018-08-28T09:06:48.811Z,29.60
2018-08-28T09:09:16.398Z,30.00
2018-08-28T09:11:43.927Z,30.30
2018-08-28T09:14:11.557Z,30.40
2018-08-28T09:16:39.593Z,30.40
2018-08-28T09:19:07.140Z,30.30
2018-08-28T09:21:35.261Z,30.30
2018-08-28T09:24:02.814Z,30.10
2018-08-28T09:26:30.363Z,29.80
2018-08-28T09:28:57.838Z,29.60
2018-08-28T09:31:25.389Z,29.20
2018-08-28T09:33:53.896Z,29.00
2018-08-28T09:36:21.397Z,29.10
2018-08-28T09:38:48.962Z,29.20
2018-08-28T09:41:16.521Z,29.40
2018-08-28T09:43:44.002Z,29.60
2018-08-28T09:46:12.808Z,29.80
2018-08-28T09:48:40.542Z,30.30
2018-08-28T09:51:11.591Z,31.00
2018-08-28T09:53:39.184Z,31.60
2018-08-28T09:56:06.653Z,32.10
2018-08-28T09:58:34.674Z,32.30
2018-08-28T10:01:07.844Z,32.40
2018-08-28T10:03:35.839Z,32.30
2018-08-28T10:06:03.341Z,32.60
2018-08-28T10:08:30.893Z,32.50
2018-08-28T10:10:58.733Z,32.70
2018-08-28T10:13:26.290Z,32.50
2018-08-28T10:15:53.809Z,32.40
2018-08-28T10:18:21.326Z,32.20
2018-08-28T10:20:48.883Z,31.70
2018-08-28T10:23:16.375Z,31.40
2018-08-28T10:25:43.857Z,31.20
2018-08-28T10:28:11.370Z,31.30
2018-08-28T10:30:38.890Z,31.80
2018-08-28T10:33:06.401Z,32.30
2018-08-28T10:35:36.774Z,32.90
2018-08-28T10:38:04.661Z,33.30
2018-08-28T10:40:32.103Z,33.40
2018-08-28T10:42:59.634Z,33.30
2018-08-28T10:45:27.190Z,33.30
2018-08-28T10:47:54.698Z,33.20
2018-08-28T10:50:22.174Z,33.00
2018-08-28T10:52:49.660Z,33.20
2018-08-28T10:55:17.335Z,33.30
2018-08-28T10:57:44.848Z,33.30
2018-08-28T11:00:12.377Z,33.50
2018-08-28T11:02:39.865Z,33.70
2018-08-28T11:05:07.462Z,34.00
2018-08-28T11:07:35.695Z,34.30
2018-08-28T11:10:03.287Z,34.80
2018-08-28T11:12:30.821Z,34.50
2018-08-28T11:14:58.741Z,34.40
2018-08-28T11:17:26.220Z,34.30
2018-08-28T11:19:53.718Z,34.40
2018-08-28T11:22:21.477Z,34.00
2018-08-28T11:24:49.031Z,33.80
2018-08-28T11:27:16.680Z,33.90
2018-08-28T11:29:44.175Z,34.00
2018-08-28T11:32:11.688Z,33.90
2018-08-28T11:34:39.222Z,33.30
2018-08-28T11:37:06.771Z,33.30
2018-08-28T11:39:34.817Z,33.50
2018-08-28T11:42:02.297Z,33.20
2018-08-28T11:44:29.973Z,33.40
2018-08-28T11:46:57.877Z,33.60
2018-08-28T11:49:25.548Z,34.00
2018-08-28T11:51:53.097Z,34.40
2018-08-28T11:54:20.614Z,34.60
2018-08-28T11:56:48.081Z,35.00
2018-08-28T11:59:15.729Z,35.50
2018-08-28T12:01:43.223Z,35.50
2018-08-28T12:04:10.770Z,35.50
2018-08-28T12:06:38.294Z,35.70
2018-08-28T12:09:06.561Z,35.90
2018-08-28T12:11:35.295Z,35.80
2018-08-28T12:14:03.032Z,36.00
2018-08-28T12:16:30.661Z,36.10
2018-08-28T12:18:58.587Z,36.40
2018-08-28T12:21:26.837Z,36.60
2018-08-28T12:23:54.538Z,36.50
2018-08-28T12:26:22.361Z,36.40
2018-08-28T12:28:49.995Z,36.10
2018-08-28T12:31:17.898Z,35.90
2018-08-28T12:33:45.383Z,36.00
2018-08-28T12:36:12.912Z,36.00
2018-08-28T12:38:40.594Z,36.10
2018-08-28T12:41:08.205Z,35.70
2018-08-28T12:43:35.999Z,35.60
2018-08-28T12:46:03.541Z,35.70
2018-08-28T12:48:31.164Z,36.00
2018-08-28T12:50:58.790Z,36.20
2018-08-28T12:53:26.310Z,35.80
2018-08-28T12:55:53.830Z,35.90
2018-08-28T12:58:21.330Z,35.90
2018-08-28T13:00:49.024Z,35.70
2018-08-28T13:03:16.527Z,35.50
2018-08-28T13:05:44.397Z,35.50
2018-08-28T13:08:11.883Z,35.20
2018-08-28T13:10:39.455Z,35.30
2018-08-28T13:13:06.936Z,35.20
2018-08-28T13:15:34.456Z,35.10
2018-08-28T13:18:01.962Z,35.00
2018-08-28T13:20:29.495Z,35.20
2018-08-28T13:22:56.997Z,35.40
2018-08-28T13:25:24.573Z,35.50
2018-08-28T13:27:52.045Z,35.50
2018-08-28T13:30:19.533Z,35.50
2018-08-28T13:32:47.105Z,35.50
2018-08-28T13:35:14.647Z,35.50
2018-08-28T13:37:42.391Z,35.60
2018-08-28T13:40:10.768Z,35.70
2018-08-28T13:42:38.326Z,35.80
2018-08-28T13:45:05.950Z,35.90
2018-08-28T13:47:33.441Z,36.00
2018-08-28T13:50:01.082Z,36.10
2018-08-28T13:52:29.013Z,36.10
2018-08-28T13:54:56.717Z,36.10
2018-08-28T13:57:24.211Z,36.20
2018-08-28T13:59:51.801Z,36.10
2018-08-28T14:02:19.314Z,36.00
2018-08-28T14:04:47.022Z,35.90
2018-08-28T14:07:14.569Z,35.90
2018-08-28T14:09:42.098Z,35.90
2018-08-28T14:12:09.630Z,35.80
2018-08-28T14:14:37.306Z,35.70
2018-08-28T14:17:05.605Z,35.40
2018-08-28T14:19:33.115Z,34.90
2018-08-28T14:22:01.647Z,34.90
2018-08-28T14:24:29.163Z,34.50
2018-08-28T14:26:56.730Z,33.80
2018-08-28T14:29:24.425Z,33.20
2018-08-28T14:31:51.833Z,32.90
2018-08-28T14:34:19.387Z,32.70
2018-08-28T14:36:47.017Z,32.80
2018-08-28T14:39:14.569Z,32.50
2018-08-28T14:41:42.093Z,32.20
2018-08-28T14:44:09.744Z,32.10
2018-08-28T14:46:37.265Z,32.00
2018-08-28T14:49:05.636Z,31.70
2018-08-28T14:51:33.135Z,31.40
2018-08-28T14:54:04.347Z,31.40
2018-08-28T14:56:33.698Z,31.70
2018-08-28T14:59:07.855Z,31.80
2018-08-28T15:01:36.186Z,31.90
2018-08-28T15:04:05.412Z,31.90
2018-08-28T15:06:32.925Z,32.00
2018-08-28T15:09:00.665Z,32.00
2018-08-28T15:11:28.177Z,31.90
2018-08-28T15:13:55.917Z,31.90
2018-08-28T15:16:23.679Z,31.90
2018-08-28T15:18:51.463Z,31.70
2018-08-28T15:21:19.888Z,31.60
2018-08-28T15:23:47.601Z,31.50
2018-08-28T15:26:15.366Z,31.50
2018-08-28T15:28:42.867Z,31.50
2018-08-28T15:31:10.364Z,31.40
2018-08-28T15:33:37.865Z,31.30
2018-08-28T15:36:05.853Z,31.20
2018-08-28T15:38:33.438Z,31.10
2018-08-28T15:41:00.927Z,31.00
2018-08-28T15:43:28.438Z,30.90
2018-08-28T15:45:56.370Z,30.70
2018-08-28T15:48:23.870Z,30.50
2018-08-28T15:50:51.659Z,30.40
2018-08-28T15:53:19.190Z,30.20
2018-08-28T15:55:46.701Z,30.00
2018-08-28T15:58:14.208Z,29.70
2018-08-28T16:00:48.098Z,29.50
2018-08-28T16:03:15.564Z,29.40
2018-08-28T16:05:43.199Z,29.30
2018-08-28T16:08:10.673Z,29.20
2018-08-28T16:10:38.251Z,29.10
2018-08-28T16:13:05.813Z,29.00
2018-08-28T16:15:33.349Z,28.90
2018-08-28T16:18:00.872Z,28.90
2018-08-28T16:20:28.416Z,28.80
2018-08-28T16:22:59.128Z,28.70
2018-08-28T16:25:26.697Z,28.70
2018-08-28T16:27:54.273Z,28.50
2018-08-28T16:30:22.781Z,28.50
2018-08-28T16:32:50.290Z,28.40
2018-08-28T16:35:17.853Z,28.30
2018-08-28T16:37:45.568Z,28.20
2018-08-28T16:40:13.493Z,28.10
2018-08-28T16:42:41.023Z,28.00
2018-08-28T16:45:08.528Z,28.00
2018-08-28T16:47:36.018Z,27.80
2018-08-28T16:50:03.625Z,27.80
2018-08-28T16:52:31.154Z,27.70
2018-08-28T16:54:58.676Z,27.60
2018-08-28T16:57:26.189Z,27.40
2018-08-28T16:59:53.761Z,27.30
2018-08-28T17:02:21.334Z,27.20
2018-08-28T17:04:48.825Z,27.10
2018-08-28T17:07:17.395Z,27.00
2018-08-28T17:09:44.931Z,26.80
2018-08-28T17:12:12.529Z,26.70
2018-08-28T17:14:41.092Z,26.50
2018-08-28T17:17:08.585Z,26.40
2018-08-28T17:19:36.185Z,26.20
2018-08-28T17:22:03.751Z,26.00
2018-08-28T17:24:31.420Z,25.80
2018-08-28T17:26:58.917Z,25.60
2018-08-28T17:29:26.460Z,25.50
2018-08-28T17:31:54.053Z,25.30
2018-08-28T17:34:21.599Z,25.10
2018-08-28T17:36:49.169Z,25.00
2018-08-28T17:39:17.023Z,24.80
2018-08-28T17:41:56.392Z,24.60
2018-08-28T17:44:24.046Z,24.40
2018-08-28T17:46:51.553Z,24.30
2018-08-28T17:49:19.111Z,24.00
2018-08-28T17:51:47.039Z,23.90
2018-08-28T17:54:15.170Z,23.60
2018-08-28T17:56:42.702Z,23.50
2018-08-28T17:59:10.239Z,23.30
2018-08-28T18:01:37.759Z,23.10
2018-08-28T18:04:05.483Z,23.00
2018-08-28T18:06:33.048Z,22.80
2018-08-28T18:09:01.124Z,22.70
2018-08-28T18:11:28.690Z,22.50
2018-08-28T18:13:56.353Z,22.40
2018-08-28T18:16:23.896Z,22.20
2018-08-28T18:18:51.400Z,22.00
2018-08-28T18:21:18.954Z,21.90
2018-08-28T18:23:46.470Z,21.80
2018-08-28T18:26:14.022Z,21.60
2018-08-28T18:28:41.652Z,21.50
2018-08-28T18:31:09.179Z,21.40
2018-08-28T18:33:36.750Z,21.30
2018-08-28T18:36:04.588Z,21.10
2018-08-28T18:38:32.253Z,21.00
2018-08-28T18:40:59.816Z,20.80
2018-08-28T18:43:27.641Z,20.70
2018-08-28T18:45:55.283Z,20.50
2018-08-28T18:48:23.058Z,20.40
2018-08-28T18:50:50.574Z,20.20
2018-08-28T18:53:18.187Z,20.10
2018-08-28T18:55:45.703Z,20.00
2018-08-28T18:58:13.221Z,19.90
2018-08-28T19:00:40.770Z,19.70
2018-08-28T19:03:08.323Z,19.60
2018-08-28T19:05:35.882Z,19.50
2018-08-28T19:08:03.442Z,19.40
2018-08-28T19:10:30.990Z,19.30
2018-08-28T19:12:58.555Z,19.20
2018-08-28T19:15:26.051Z,19.10
2018-08-28T19:17:53.598Z,19.00
2018-08-28T19:20:21.120Z,18.90
2018-08-28T19:22:48.686Z,18.80
2018-08-28T19:25:17.104Z,18.70
2018-08-28T19:27:44.636Z,18.60
2018-08-28T19:30:12.270Z,18.50
2018-08-28T19:32:39.803Z,18.50
2018-08-28T19:35:07.334Z,18.40
2018-08-28T19:37:34.983Z,18.30
2018-08-28T19:40:02.447Z,18.20
2018-08-28T19:42:29.995Z,18.20
2018-08-28T19:44:57.539Z,18.10
2018-08-28T19:47:25.091Z,18.10
2018-08-28T19:49:52.689Z,18.00
2018-08-28T19:52:20.170Z,17.90
2018-08-28T19:54:47.736Z,17.90
2018-08-28T19:57:16.193Z,17.80
2018-08-28T19:59:43.737Z,17.80
2018-08-28T20:02:11.576Z,17.70
2018-08-28T20:04:39.146Z,17.60
2018-08-28T20:07:06.865Z,17.50
2018-08-28T20:09:34.409Z,17.50
2018-08-28T20:12:02.343Z,17.40
2018-08-28T20:14:29.964Z,17.30
2018-08-28T20:16:57.565Z,17.20
2018-08-28T20:19:25.081Z,17.10
2018-08-28T20:21:52.618Z,17.00
2018-08-28T20:24:20.194Z,17.00
2018-08-28T20:26:47.783Z,16.90
2018-08-28T20:29:15.809Z,16.80
2018-08-28T20:31:43.345Z,16.80
2018-08-28T20:34:10.946Z,16.70
2018-08-28T20:36:38.592Z,16.70
2018-08-28T20:39:06.583Z,16.70
2018-08-28T20:41:34.463Z,16.60
2018-08-28T20:44:02.149Z,16.50
2018-08-28T20:46:29.678Z,16.50
2018-08-28T20:48:57.200Z,16.40
2018-08-28T20:51:24.722Z,16.40
2018-08-28T20:53:52.230Z,16.30
2018-08-28T20:56:19.739Z,16.20
2018-08-28T20:58:50.799Z,16.20
2018-08-28T21:01:18.282Z,16.10
2018-08-28T21:03:46.929Z,16.10
2018-08-28T21:06:14.463Z,16.00
2018-08-28T21:08:41.994Z,16.00
2018-08-28T21:11:09.463Z,15.90
2018-08-28T21:13:37.030Z,15.90
2018-08-28T21:16:04.546Z,15.90
2018-08-28T21:18:32.041Z,15.90
2018-08-28T21:20:59.580Z,15.80
2018-08-28T21:23:27.093Z,15.80
2018-08-28T21:25:54.618Z,15.80
2018-08-28T21:28:22.137Z,15.70
2018-08-28T21:30:49.636Z,15.70
2018-08-28T21:33:17.676Z,15.60
2018-08-28T21:35:45.224Z,15.60
2018-08-28T21:38:12.709Z,15.50
2018-08-28T21:40:40.162Z,15.40
2018-08-28T21:43:07.705Z,15.40
2018-08-28T21:45:35.522Z,15.20
2018-08-28T21:48:03.188Z,15.20
2018-08-28T21:50:30.702Z,15.10
2018-08-28T21:53:01.526Z,15.10
2018-08-28T21:55:29.055Z,15.00
2018-08-28T21:57:56.562Z,14.90
2018-08-28T22:00:24.122Z,14.90
2018-08-28T22:02:51.617Z,14.80
2018-08-28T22:05:23.713Z,14.70
2018-08-28T22:07:55.828Z,14.70
2018-08-28T22:10:23.415Z,14.70
2018-08-28T22:12:52.018Z,14.70
2018-08-28T22:15:19.532Z,14.60
2018-08-28T22:17:47.014Z,14.60
2018-08-28T22:20:14.576Z,14.60
2018-08-28T22:22:42.083Z,14.50
2018-08-28T22:25:09.626Z,14.50
2018-08-28T22:27:37.103Z,14.40
2018-08-28T22:30:06.294Z,14.40
2018-08-28T22:32:33.790Z,14.30
2018-08-28T22:35:01.363Z,14.30
2018-08-28T22:37:28.890Z,14.20
2018-08-28T22:39:56.434Z,14.10
2018-08-28T22:42:23.915Z,14.10
2018-08-28T22:44:51.405Z,14.00
2018-08-28T22:47:18.902Z,13.90
2018-08-28T22:49:46.409Z,13.90
2018-08-28T22:52:13.913Z,13.80
2018-08-28T22:54:41.491Z,13.80
2018-08-28T22:57:09.025Z,13.80
2018-08-28T22:59:36.794Z,13.70
2018-08-28T23:02:04.453Z,13.70
2018-08-28T23:04:31.958Z,13.80
2018-08-28T23:06:59.481Z,13.80
2018-08-28T23:09:27.027Z,13.80
2018-08-28T23:11:54.542Z,13.80
2018-08-28T23:14:22.067Z,13.70
2018-08-28T23:16:49.553Z,13.70
2018-08-28T23:19:17.565Z,13.70
2018-08-28T23:21:45.069Z,13.60
2018-08-28T23:24:12.571Z,13.60
2018-08-28T23:26:40.070Z,13.60
2018-08-28T23:29:07.670Z,13.60
2018-08-28T23:31:35.163Z,13.60
2018-08-28T23:34:02.653Z,13.60
2018-08-28T23:36:30.162Z,13.50
2018-08-28T23:38:57.641Z,13.50
2018-08-28T23:41:25.349Z,13.50
2018-08-28T23:43:52.837Z,13.50
2018-08-28T23:46:20.353Z,13.50
2018-08-28T23:48:47.955Z,13.50
2018-08-28T23:51:16.220Z,13.50
2018-08-28T23:53:43.745Z,13.40
2018-08-28T23:56:11.301Z,13.40
2018-08-28T23:58:38.856Z,13.40
